If you wish to contribute or participate in the discussions about articles you are invited to join SKYbrary as a registered user

 Actions

Teniente General Gerardo Pérez Pinedo Airport

From SKYbrary Wiki

SPAY
Airport
ICAO: SPAY
Summary
Name Teniente General Gerardo Pérez Pinedo Airport
Region South America and Caribbean
Territory Peru PE.gif
Location Atalaya, Ucayali
Serving Atalaya
Elevation 228.905 m
751 ft
751 ft228.905 m
Type medium airport
Coordinates 10° 43' 44.82" S, 73° 45' 59.41" W
Runways
Designator Length Width Surface ROPS
5/23 1504 m4,934.383 ft
30 m98.425 ft
ASP /


METAR
Observation SPAY 012200Z 08002KT 9999 SCT025 30/23 Q1015 RMK TX 32.0 BIRD HAZARD RWY 04/22 PP000
Station Atalaya
Date/Time 01 August 2020 22:00:00
Wind direction 80°
Wind speed 02 kts
Lowest cloud amount scattered clouds
Temperature 30°C
Dew point 23°C
Humidity 66%
QNH 1015 hPa
Weather condition n/a

Regional airport serving the town of Atalaya, in the Ucayali Region of Peru. The town is at the confluence of the Tambo and Ucayali Rivers.

Climatology

Equatorial climate (Köppen climate classification Af).

Maps

Terrain

Loading map...

Airport Layout

Loading map...


Accidents & Serious Incidents at or in vicinity of SPAY

None on SKYbrary